createdAt,value
2018-11-26T00:00:23.717Z,5.53
2018-11-26T00:01:23.712Z,5.56
2018-11-26T00:02:23.721Z,5.54
2018-11-26T00:03:23.712Z,5.61
2018-11-26T00:04:23.674Z,5.62
2018-11-26T00:05:23.668Z,5.51
2018-11-26T00:06:23.664Z,5.53
2018-11-26T00:07:23.662Z,5.59
2018-11-26T00:08:23.631Z,5.61
2018-11-26T00:09:23.623Z,5.59
2018-11-26T00:10:23.616Z,5.64
2018-11-26T00:11:23.624Z,5.57
2018-11-26T00:12:23.639Z,5.62
2018-11-26T00:13:23.584Z,5.61
2018-11-26T00:14:23.570Z,5.62
2018-11-26T00:15:23.555Z,5.48
2018-11-26T00:16:23.547Z,5.50
2018-11-26T00:17:23.565Z,5.62
2018-11-26T00:18:23.547Z,5.59
2018-11-26T00:19:23.515Z,5.68
2018-11-26T00:20:23.531Z,5.71
2018-11-26T00:21:23.498Z,5.66
2018-11-26T00:22:23.482Z,5.69
2018-11-26T00:23:23.497Z,5.62
2018-11-26T00:24:23.467Z,5.59
2018-11-26T00:25:23.458Z,5.64
2018-11-26T00:26:23.440Z,5.62
2018-11-26T00:27:23.433Z,5.50
2018-11-26T00:28:23.460Z,5.59
2018-11-26T00:29:23.415Z,5.57
2018-11-26T00:30:23.401Z,5.46
2018-11-26T00:31:23.387Z,5.47
2018-11-26T00:32:23.384Z,5.62
2018-11-26T00:33:23.364Z,5.51
2018-11-26T00:34:23.369Z,5.54
2018-11-26T00:35:23.359Z,5.61
2018-11-26T00:36:23.340Z,5.64
2018-11-26T00:37:23.325Z,5.53
2018-11-26T00:38:23.326Z,5.62
2018-11-26T00:39:23.326Z,5.56
2018-11-26T00:40:23.298Z,5.54
2018-11-26T00:41:23.280Z,5.64
2018-11-26T00:42:23.267Z,5.57
2018-11-26T00:43:23.259Z,5.50
2018-11-26T00:44:23.282Z,5.51
2018-11-26T00:45:23.232Z,5.54
2018-11-26T00:46:23.226Z,5.64
2018-11-26T00:47:23.235Z,5.62
2018-11-26T00:48:23.224Z,5.53
2018-11-26T00:49:23.206Z,5.56
2018-11-26T00:50:23.193Z,5.53
2018-11-26T00:51:23.194Z,5.54
2018-11-26T00:52:23.184Z,5.38
2018-11-26T00:53:23.162Z,5.43
2018-11-26T00:54:23.143Z,5.53
2018-11-26T00:55:23.132Z,5.53
2018-11-26T00:56:23.125Z,5.54
2018-11-26T00:57:23.122Z,5.59
2018-11-26T00:58:23.114Z,5.64
2018-11-26T00:59:23.088Z,5.68
2018-11-26T01:00:23.076Z,5.59
2018-11-26T01:01:23.077Z,5.61
2018-11-26T01:02:23.068Z,5.51
2018-11-26T01:03:23.040Z,5.57
2018-11-26T01:04:23.033Z,5.64
2018-11-26T01:05:23.032Z,5.61
2018-11-26T01:06:23.011Z,5.61
2018-11-26T01:07:23.031Z,5.51
2018-11-26T01:08:22.985Z,5.50
2018-11-26T01:09:22.975Z,5.56
2018-11-26T01:10:22.968Z,5.65
2018-11-26T01:11:22.954Z,5.69
2018-11-26T01:12:22.981Z,5.68
2018-11-26T01:13:22.951Z,5.62
2018-11-26T01:14:22.943Z,5.79
2018-11-26T01:15:22.909Z,5.72
2018-11-26T01:16:22.926Z,5.72
2018-11-26T01:17:22.895Z,5.75
2018-11-26T01:18:22.940Z,5.61
2018-11-26T01:19:22.895Z,5.54
2018-11-26T01:20:22.862Z,5.39
2018-11-26T01:21:22.859Z,5.43
2018-11-26T01:22:22.858Z,5.56
2018-11-26T01:23:22.856Z,5.61
2018-11-26T01:24:22.823Z,5.65
2018-11-26T01:25:22.808Z,5.61
2018-11-26T01:26:22.793Z,5.59
2018-11-26T01:27:22.786Z,5.51
2018-11-26T01:28:22.818Z,5.62
2018-11-26T01:29:22.771Z,5.66
2018-11-26T01:30:22.750Z,5.73
2018-11-26T01:31:22.750Z,5.64
2018-11-26T01:32:22.763Z,5.66
2018-11-26T01:33:22.737Z,5.64
2018-11-26T01:34:22.749Z,5.65
2018-11-26T01:35:22.701Z,5.64
2018-11-26T01:36:22.698Z,5.61
2018-11-26T01:37:22.678Z,5.62
2018-11-26T01:38:22.676Z,5.62
2018-11-26T01:39:22.683Z,5.66
2018-11-26T01:40:22.641Z,5.59
2018-11-26T01:41:22.628Z,5.72
2018-11-26T01:42:22.625Z,5.72
2018-11-26T01:43:22.618Z,5.68
2018-11-26T01:44:22.657Z,5.64
2018-11-26T01:45:22.600Z,5.64
2018-11-26T01:46:22.590Z,5.68
2018-11-26T01:47:22.575Z,5.68
2018-11-26T01:48:22.556Z,5.65
2018-11-26T01:49:22.546Z,5.72
2018-11-26T01:50:22.603Z,5.71
2018-11-26T01:51:22.572Z,5.72
2018-11-26T01:52:22.521Z,5.71
2018-11-26T01:53:22.500Z,5.61
2018-11-26T01:54:22.518Z,5.56
2018-11-26T01:55:22.500Z,5.62
2018-11-26T01:56:22.469Z,5.59
2018-11-26T01:57:22.501Z,5.56
2018-11-26T01:58:22.472Z,5.65
2018-11-26T01:59:22.438Z,5.59
2018-11-26T02:00:22.460Z,5.65
2018-11-26T02:01:22.418Z,5.48
2018-11-26T02:02:22.411Z,5.62
2018-11-26T02:03:22.404Z,5.56
2018-11-26T02:04:22.381Z,5.51
2018-11-26T02:05:22.380Z,5.46
2018-11-26T02:06:22.385Z,5.47
2018-11-26T02:07:22.349Z,5.44
2018-11-26T02:08:22.381Z,5.46
2018-11-26T02:09:22.369Z,5.44
2018-11-26T02:10:22.320Z,5.44
2018-11-26T02:11:22.320Z,5.38
2018-11-26T02:12:22.325Z,5.38
2018-11-26T02:13:22.295Z,5.41
2018-11-26T02:14:22.311Z,5.36
2018-11-26T02:15:22.281Z,5.43
2018-11-26T02:16:22.256Z,5.39
2018-11-26T02:17:22.296Z,5.39
2018-11-26T02:18:22.234Z,5.39
2018-11-26T02:19:22.228Z,5.43
2018-11-26T02:20:22.214Z,5.28
2018-11-26T02:21:22.208Z,5.29
2018-11-26T02:22:22.207Z,5.26
2018-11-26T02:23:22.196Z,5.30
2018-11-26T02:24:22.173Z,5.25
2018-11-26T02:25:22.164Z,5.28
2018-11-26T02:26:22.159Z,5.28
2018-11-26T02:27:22.172Z,5.17
2018-11-26T02:28:22.149Z,5.20
2018-11-26T02:29:22.122Z,5.18
2018-11-26T02:30:22.127Z,5.12
2018-11-26T02:31:22.098Z,5.04
2018-11-26T02:32:22.118Z,5.05
2018-11-26T02:33:22.094Z,5.11
2018-11-26T02:34:22.063Z,5.05
2018-11-26T02:35:22.068Z,5.08
2018-11-26T02:36:22.054Z,5.17
2018-11-26T02:37:22.030Z,5.21
2018-11-26T02:38:22.047Z,5.14
2018-11-26T02:39:22.013Z,5.12
2018-11-26T02:40:21.995Z,5.11
2018-11-26T02:41:21.996Z,5.11
2018-11-26T02:42:21.991Z,5.14
2018-11-26T02:43:22.034Z,5.21
2018-11-26T02:44:21.952Z,5.15
2018-11-26T02:45:21.957Z,5.18
2018-11-26T02:46:21.962Z,5.21
2018-11-26T02:47:21.950Z,5.20
2018-11-26T02:48:21.935Z,5.18
2018-11-26T02:49:21.903Z,5.21
2018-11-26T02:50:21.914Z,5.30
2018-11-26T02:51:21.880Z,5.20
2018-11-26T02:52:21.870Z,5.28
2018-11-26T02:53:21.926Z,5.26
2018-11-26T02:54:21.859Z,5.29
2018-11-26T02:55:21.844Z,5.29
2018-11-26T02:56:21.832Z,5.29
2018-11-26T02:57:21.812Z,5.23
2018-11-26T02:58:21.826Z,5.28
2018-11-26T02:59:21.798Z,5.21
2018-11-26T03:00:21.787Z,5.25
2018-11-26T03:01:21.774Z,5.18
2018-11-26T03:02:21.762Z,5.14
2018-11-26T03:03:21.784Z,5.18
2018-11-26T03:04:21.743Z,5.10
2018-11-26T03:05:21.733Z,5.10
2018-11-26T03:06:21.724Z,5.05
2018-11-26T03:07:21.718Z,5.04
2018-11-26T03:08:21.730Z,5.00
2018-11-26T03:09:21.706Z,5.07
2018-11-26T03:10:21.679Z,5.05
2018-11-26T03:11:21.689Z,5.00
2018-11-26T03:12:21.663Z,5.14
2018-11-26T03:13:21.649Z,5.14
2018-11-26T03:14:21.660Z,5.10
2018-11-26T03:15:21.635Z,5.08
2018-11-26T03:16:21.627Z,5.12
2018-11-26T03:17:21.602Z,5.18
2018-11-26T03:18:21.599Z,5.18
2018-11-26T03:19:21.593Z,5.12
2018-11-26T03:20:21.574Z,5.04
2018-11-26T03:21:21.555Z,5.08
2018-11-26T03:22:21.556Z,5.07
2018-11-26T03:23:21.535Z,5.07
2018-11-26T03:24:21.554Z,5.10
2018-11-26T03:25:21.539Z,4.94
2018-11-26T03:26:21.499Z,4.99
2018-11-26T03:27:21.494Z,5.07
2018-11-26T03:28:21.511Z,4.94
2018-11-26T03:29:21.488Z,5.02
2018-11-26T03:30:21.473Z,4.96
2018-11-26T03:31:21.484Z,4.93
2018-11-26T03:32:21.447Z,5.07
2018-11-26T03:33:21.465Z,5.05
2018-11-26T03:34:21.448Z,5.07
2018-11-26T03:35:21.412Z,5.12
2018-11-26T03:36:21.393Z,5.08
2018-11-26T03:37:21.407Z,5.21
2018-11-26T03:38:21.413Z,5.14
2018-11-26T03:39:21.367Z,5.11
2018-11-26T03:40:21.361Z,5.12
2018-11-26T03:41:21.347Z,5.12
2018-11-26T03:42:21.336Z,5.18
2018-11-26T03:43:26.479Z,5.10
2018-11-26T03:44:21.307Z,5.23
2018-11-26T03:45:21.337Z,5.21
2018-11-26T03:46:21.303Z,5.21
2018-11-26T03:47:21.298Z,5.20
2018-11-26T03:48:21.268Z,5.18
2018-11-26T03:49:21.298Z,5.10
2018-11-26T03:50:21.248Z,5.14
2018-11-26T03:51:21.230Z,5.17
2018-11-26T03:52:21.226Z,5.07
2018-11-26T03:53:21.214Z,5.02
2018-11-26T03:54:26.460Z,5.08
2018-11-26T03:55:21.233Z,5.07
2018-11-26T03:56:21.193Z,4.99
2018-11-26T03:57:21.203Z,5.04
2018-11-26T03:58:21.188Z,5.04
2018-11-26T03:59:21.145Z,5.12
2018-11-26T04:00:21.160Z,4.97
2018-11-26T04:01:21.123Z,5.08
2018-11-26T04:02:21.133Z,4.99
2018-11-26T04:03:21.137Z,4.99
2018-11-26T04:04:21.091Z,4.94
2018-11-26T04:05:21.097Z,4.92
2018-11-26T04:06:21.099Z,4.96
2018-11-26T04:07:21.058Z,5.00
2018-11-26T04:08:21.092Z,4.90
2018-11-26T04:09:21.068Z,4.99
2018-11-26T04:10:21.034Z,5.00
2018-11-26T04:11:21.022Z,4.94
2018-11-26T04:12:21.024Z,5.02
2018-11-26T04:13:20.993Z,5.04
2018-11-26T04:14:21.020Z,4.96
2018-11-26T04:15:20.978Z,4.84
2018-11-26T04:16:20.971Z,4.92
2018-11-26T04:17:20.960Z,4.84
2018-11-26T04:18:20.956Z,4.89
2018-11-26T04:19:20.987Z,4.80
2018-11-26T04:20:20.929Z,4.82
2018-11-26T04:21:20.906Z,4.82
2018-11-26T04:22:20.912Z,4.75
2018-11-26T04:23:20.905Z,4.84
2018-11-26T04:24:20.875Z,4.87
2018-11-26T04:25:20.900Z,4.77
2018-11-26T04:26:20.857Z,4.82
2018-11-26T04:27:20.850Z,4.84
2018-11-26T04:28:20.833Z,4.74
2018-11-26T04:29:20.828Z,4.90
2018-11-26T04:30:20.833Z,4.74
2018-11-26T04:31:20.798Z,4.77
2018-11-26T04:32:20.789Z,4.66
2018-11-26T04:33:20.783Z,4.77
2018-11-26T04:34:20.770Z,4.63
2018-11-26T04:35:20.798Z,4.59
2018-11-26T04:36:20.743Z,4.60
2018-11-26T04:37:20.738Z,4.56
2018-11-26T04:38:20.729Z,4.50
2018-11-26T04:39:20.713Z,4.62
2018-11-26T04:40:20.704Z,4.63
2018-11-26T04:41:20.708Z,4.62
2018-11-26T04:42:20.682Z,4.66
2018-11-26T04:43:20.674Z,4.68
2018-11-26T04:44:20.659Z,4.67
2018-11-26T04:45:20.650Z,4.71
2018-11-26T04:46:20.671Z,4.68
2018-11-26T04:47:20.629Z,4.52
2018-11-26T04:48:20.623Z,4.48
2018-11-26T04:49:20.614Z,4.49
2018-11-26T04:50:20.591Z,4.42
2018-11-26T04:51:20.623Z,4.42
2018-11-26T04:52:20.584Z,4.48
2018-11-26T04:53:20.566Z,4.52
2018-11-26T04:54:20.550Z,4.59
2018-11-26T04:55:20.540Z,4.59
2018-11-26T04:56:20.564Z,4.60
2018-11-26T04:57:20.519Z,4.58
2018-11-26T04:58:20.514Z,4.67
2018-11-26T04:59:20.510Z,4.73
2018-11-26T05:00:20.499Z,4.73
2018-11-26T05:01:20.498Z,4.66
2018-11-26T05:02:20.492Z,4.68
2018-11-26T05:03:20.458Z,4.67
2018-11-26T05:04:20.444Z,4.62
2018-11-26T05:05:20.439Z,4.70
2018-11-26T05:06:20.419Z,4.60
2018-11-26T05:07:20.434Z,4.62
2018-11-26T05:08:20.405Z,4.60
2018-11-26T05:09:20.413Z,4.66
2018-11-26T05:10:20.392Z,4.63
2018-11-26T05:11:20.373Z,4.52
2018-11-26T05:12:20.360Z,4.59
2018-11-26T05:13:20.378Z,4.58
2018-11-26T05:14:20.367Z,4.58
2018-11-26T05:15:20.327Z,4.53
2018-11-26T05:16:20.326Z,4.56
2018-11-26T05:17:20.311Z,4.52
2018-11-26T05:18:20.298Z,4.48
2018-11-26T05:19:20.307Z,4.38
2018-11-26T05:20:20.273Z,4.38
2018-11-26T05:21:20.275Z,4.41
2018-11-26T05:22:20.248Z,4.41
2018-11-26T05:23:20.244Z,4.41
2018-11-26T05:24:20.266Z,4.40
2018-11-26T05:25:20.231Z,4.40
2018-11-26T05:26:20.206Z,4.41
2018-11-26T05:27:20.226Z,4.44
2018-11-26T05:28:20.215Z,4.45
2018-11-26T05:29:20.168Z,4.44
2018-11-26T05:30:20.194Z,4.50
2018-11-26T05:31:20.181Z,4.41
2018-11-26T05:32:20.139Z,4.42
2018-11-26T05:33:20.167Z,4.37
2018-11-26T05:34:20.136Z,4.38
2018-11-26T05:35:20.111Z,4.23
2018-11-26T05:36:20.136Z,4.22
2018-11-26T05:37:20.102Z,4.30
2018-11-26T05:38:20.074Z,4.22
2018-11-26T05:39:20.070Z,4.14
2018-11-26T05:40:20.056Z,4.32
2018-11-26T05:41:20.044Z,4.23
2018-11-26T05:42:20.058Z,4.24
2018-11-26T05:43:20.026Z,4.38
2018-11-26T05:44:20.010Z,4.45
2018-11-26T05:45:20.026Z,4.34
2018-11-26T05:46:19.990Z,4.24
2018-11-26T05:47:20.002Z,4.23
2018-11-26T05:48:19.967Z,4.20
2018-11-26T05:49:19.969Z,4.19
2018-11-26T05:50:19.968Z,4.19
2018-11-26T05:51:19.951Z,4.14
2018-11-26T05:52:19.952Z,4.19
2018-11-26T05:53:19.928Z,4.16
2018-11-26T05:54:19.898Z,4.12
2018-11-26T05:55:19.892Z,4.23
2018-11-26T05:56:19.879Z,4.19
2018-11-26T05:57:19.873Z,4.22
2018-11-26T05:58:19.884Z,4.32
2018-11-26T05:59:19.852Z,4.40
2018-11-26T06:00:19.849Z,4.40
2018-11-26T06:01:19.824Z,4.32
2018-11-26T06:02:19.814Z,4.24
2018-11-26T06:03:19.822Z,4.30
2018-11-26T06:04:19.800Z,4.34
2018-11-26T06:05:19.791Z,4.31
2018-11-26T06:06:19.796Z,4.38
2018-11-26T06:07:19.761Z,4.41
2018-11-26T06:08:19.771Z,4.37
2018-11-26T06:09:19.740Z,4.32
2018-11-26T06:10:19.725Z,4.24
2018-11-26T06:11:19.715Z,4.14
2018-11-26T06:12:19.702Z,4.20
2018-11-26T06:13:19.717Z,4.20
2018-11-26T06:14:19.689Z,4.22
2018-11-26T06:15:19.677Z,4.19
2018-11-26T06:16:19.660Z,4.34
2018-11-26T06:17:19.702Z,4.28
2018-11-26T06:18:19.643Z,4.26
2018-11-26T06:19:19.651Z,4.30
2018-11-26T06:20:19.797Z,4.40
2018-11-26T06:21:19.621Z,4.31
2018-11-26T06:22:19.600Z,4.20
2018-11-26T06:23:19.593Z,4.17
2018-11-26T06:24:19.600Z,4.13
2018-11-26T06:25:19.563Z,4.12
2018-11-26T06:26:19.561Z,4.13
2018-11-26T06:27:19.568Z,4.16
2018-11-26T06:28:19.529Z,4.13
2018-11-26T06:29:19.549Z,4.23
2018-11-26T06:30:19.514Z,4.16
2018-11-26T06:31:19.497Z,4.16
2018-11-26T06:32:19.485Z,4.14
2018-11-26T06:33:19.481Z,4.17
2018-11-26T06:34:19.468Z,4.17
2018-11-26T06:35:19.487Z,4.12
2018-11-26T06:36:19.449Z,4.14
2018-11-26T06:37:19.429Z,4.08
2018-11-26T06:38:19.423Z,4.16
2018-11-26T06:39:19.424Z,4.14
2018-11-26T06:40:19.421Z,4.16
2018-11-26T06:41:19.385Z,4.16
2018-11-26T06:42:19.389Z,4.22
2018-11-26T06:43:19.367Z,4.23
2018-11-26T06:44:19.393Z,4.20
2018-11-26T06:45:19.371Z,4.17
2018-11-26T06:46:19.336Z,4.24
2018-11-26T06:47:19.327Z,4.26
2018-11-26T06:48:19.317Z,4.31
2018-11-26T06:49:19.300Z,4.16
2018-11-26T06:50:19.342Z,4.14
2018-11-26T06:51:19.298Z,4.20
2018-11-26T06:52:19.269Z,4.23
2018-11-26T06:53:19.294Z,4.12
2018-11-26T06:54:19.254Z,4.17
2018-11-26T06:55:19.233Z,4.17
2018-11-26T06:56:19.272Z,4.16
2018-11-26T06:57:19.215Z,4.01
2018-11-26T06:58:19.211Z,4.05
2018-11-26T06:59:19.201Z,4.17
2018-11-26T07:00:19.188Z,4.13
2018-11-26T07:01:19.204Z,4.05
2018-11-26T07:02:19.167Z,3.96
2018-11-26T07:03:19.149Z,4.05
2018-11-26T07:04:19.142Z,4.02
2018-11-26T07:05:19.134Z,4.01
2018-11-26T07:06:19.159Z,3.96
2018-11-26T07:07:19.106Z,4.10
2018-11-26T07:08:19.103Z,4.16
2018-11-26T07:09:19.080Z,4.19
2018-11-26T07:10:19.072Z,4.13
2018-11-26T07:11:19.093Z,4.08
2018-11-26T07:12:19.084Z,4.14
2018-11-26T07:13:19.061Z,4.05
2018-11-26T07:14:19.028Z,4.01
2018-11-26T07:15:19.019Z,3.96
2018-11-26T07:16:19.015Z,4.02
2018-11-26T07:17:19.022Z,4.04
2018-11-26T07:18:18.983Z,4.01
2018-11-26T07:19:18.979Z,4.06
2018-11-26T07:20:18.968Z,3.99
2018-11-26T07:21:18.953Z,4.12
2018-11-26T07:22:18.982Z,4.16
2018-11-26T07:23:18.952Z,4.20
2018-11-26T07:24:18.922Z,4.20
2018-11-26T07:25:18.910Z,4.19
2018-11-26T07:26:18.911Z,4.12
2018-11-26T07:27:18.891Z,4.16
2018-11-26T07:28:18.899Z,4.26
2018-11-26T07:29:23.997Z,4.13
2018-11-26T07:30:19.864Z,4.14
2018-11-26T07:31:18.843Z,4.23
2018-11-26T07:32:18.846Z,4.22
2018-11-26T07:33:18.851Z,4.19
2018-11-26T07:34:18.812Z,4.22
2018-11-26T07:35:18.808Z,4.26
2018-11-26T07:36:18.791Z,4.17
2018-11-26T07:37:18.795Z,4.19
2018-11-26T07:38:18.805Z,4.16
2018-11-26T07:39:18.757Z,4.20
2018-11-26T07:40:18.782Z,4.14
2018-11-26T07:41:18.741Z,4.23
2018-11-26T07:42:18.737Z,4.32
2018-11-26T07:43:18.736Z,4.38
2018-11-26T07:44:18.719Z,4.23
2018-11-26T07:45:18.703Z,4.17
2018-11-26T07:46:18.682Z,4.14
2018-11-26T07:47:18.678Z,4.05
2018-11-26T07:48:18.665Z,4.05
2018-11-26T07:49:18.672Z,3.98
2018-11-26T07:50:26.249Z,4.04
2018-11-26T07:51:18.633Z,4.13
2018-11-26T07:52:18.619Z,4.12
2018-11-26T07:53:18.603Z,4.12
2018-11-26T07:54:18.620Z,4.16
2018-11-26T07:55:18.616Z,4.13
2018-11-26T07:56:18.577Z,4.23
2018-11-26T07:57:18.565Z,4.16
2018-11-26T07:58:18.559Z,4.16
2018-11-26T07:59:18.543Z,4.17
2018-11-26T08:00:18.571Z,4.23
2018-11-26T08:01:18.517Z,4.20
2018-11-26T08:02:18.508Z,4.16
2018-11-26T08:03:18.497Z,4.13
2018-11-26T08:04:18.495Z,4.12
2018-11-26T08:05:18.516Z,4.17
2018-11-26T08:06:18.472Z,4.19
2018-11-26T08:07:18.535Z,4.12
2018-11-26T08:08:18.440Z,4.06
2018-11-26T08:09:18.436Z,4.12
2018-11-26T08:10:18.441Z,4.23
2018-11-26T08:11:18.410Z,4.14
2018-11-26T08:12:18.424Z,4.22
2018-11-26T08:13:18.406Z,4.20
2018-11-26T08:14:18.384Z,4.14
2018-11-26T08:15:18.367Z,4.01
2018-11-26T08:16:18.364Z,4.02
2018-11-26T08:17:18.366Z,3.94
2018-11-26T08:18:18.356Z,3.92
2018-11-26T08:19:18.333Z,3.81
2018-11-26T08:20:18.403Z,3.86
2018-11-26T08:21:18.321Z,3.87
2018-11-26T08:22:18.322Z,3.87
2018-11-26T08:23:18.309Z,3.74
2018-11-26T08:24:18.310Z,3.68
2018-11-26T08:25:18.268Z,3.60
2018-11-26T08:26:18.248Z,3.74
2018-11-26T08:27:18.252Z,3.70
2018-11-26T08:28:18.231Z,3.77
2018-11-26T08:29:18.264Z,3.69
2018-11-26T08:30:18.204Z,3.70
2018-11-26T08:31:18.192Z,3.74
2018-11-26T08:32:18.189Z,3.76
2018-11-26T08:33:18.195Z,3.69
2018-11-26T08:34:18.188Z,3.66
2018-11-26T08:35:18.168Z,3.76
2018-11-26T08:36:18.137Z,3.77
2018-11-26T08:37:18.124Z,3.74
2018-11-26T08:38:18.115Z,3.83
2018-11-26T08:39:18.125Z,3.83
2018-11-26T08:40:18.096Z,3.77
2018-11-26T08:41:18.086Z,3.63
2018-11-26T08:42:18.078Z,3.59
2018-11-26T08:43:18.066Z,3.50
2018-11-26T08:44:18.088Z,3.63
2018-11-26T08:45:18.042Z,3.60
2018-11-26T08:46:18.032Z,3.58
2018-11-26T08:47:18.027Z,3.55
2018-11-26T08:48:18.005Z,3.58
2018-11-26T08:49:18.005Z,3.58
2018-11-26T08:50:18.109Z,3.59
2018-11-26T08:51:17.974Z,3.70
2018-11-26T08:52:17.968Z,3.66
2018-11-26T08:53:17.997Z,3.69
2018-11-26T08:54:17.948Z,3.80
2018-11-26T08:55:17.971Z,3.80
2018-11-26T08:56:18.019Z,3.73
2018-11-26T08:57:17.924Z,3.60
2018-11-26T08:58:17.919Z,3.63
2018-11-26T09:00:34.151Z,3.58
2018-11-26T09:01:34.101Z,3.56
2018-11-26T09:02:34.100Z,3.65
2018-11-26T09:03:34.081Z,3.69
2018-11-26T09:04:34.068Z,3.73
2018-11-26T09:05:34.107Z,3.76
2018-11-26T09:06:34.051Z,3.77
2018-11-26T09:07:34.040Z,3.80
2018-11-26T09:08:34.023Z,3.84
2018-11-26T09:09:34.020Z,3.84
2018-11-26T09:10:34.023Z,3.83
2018-11-26T09:11:34.017Z,3.86
2018-11-26T09:12:33.993Z,3.65
2018-11-26T09:13:33.988Z,3.50
2018-11-26T09:14:33.962Z,3.51
2018-11-26T09:15:33.976Z,3.45
2018-11-26T09:16:33.965Z,3.50
2018-11-26T09:17:33.945Z,3.48
2018-11-26T09:18:33.928Z,3.41
2018-11-26T09:19:33.906Z,3.48
2018-11-26T09:20:33.897Z,3.42
2018-11-26T09:21:33.928Z,3.47
2018-11-26T09:22:33.907Z,3.40
2018-11-26T09:23:33.860Z,3.55
2018-11-26T09:24:33.855Z,3.58
2018-11-26T09:25:33.835Z,3.66
2018-11-26T09:26:33.830Z,3.66
2018-11-26T09:27:33.845Z,3.68
2018-11-26T09:28:33.829Z,3.55
2018-11-26T09:29:33.795Z,3.63
2018-11-26T09:30:33.784Z,3.40
2018-11-26T09:31:33.768Z,3.50
2018-11-26T09:32:33.788Z,3.41
2018-11-26T09:33:33.788Z,3.45
2018-11-26T09:34:33.741Z,3.47
2018-11-26T09:35:33.725Z,3.45
2018-11-26T09:36:33.722Z,3.47
2018-11-26T09:37:33.735Z,3.41
2018-11-26T09:38:33.699Z,3.44
2018-11-26T09:39:33.691Z,3.44
2018-11-26T09:40:33.708Z,3.41
2018-11-26T09:41:33.659Z,3.42
2018-11-26T09:42:33.660Z,3.50
2018-11-26T09:43:33.664Z,3.45
2018-11-26T09:44:33.627Z,3.47
2018-11-26T09:45:40.021Z,3.45
2018-11-26T09:46:34.601Z,3.51
2018-11-26T09:47:33.592Z,3.45
2018-11-26T09:48:33.604Z,3.47
2018-11-26T09:49:33.594Z,3.42
2018-11-26T09:50:33.556Z,3.51
2018-11-26T09:51:41.640Z,3.48
2018-11-26T09:52:34.539Z,3.62
2018-11-26T09:53:33.549Z,3.62
2018-11-26T09:54:33.532Z,3.56
2018-11-26T09:55:33.551Z,3.66
2018-11-26T09:56:33.491Z,3.66
2018-11-26T09:57:33.494Z,3.69
2018-11-26T09:58:33.517Z,3.77
2018-11-26T09:59:33.462Z,3.78
2018-11-26T10:00:33.457Z,3.73
2018-11-26T10:01:33.443Z,3.69
2018-11-26T10:02:33.441Z,3.73
2018-11-26T10:03:33.438Z,3.68
2018-11-26T10:04:33.423Z,3.77
2018-11-26T10:05:33.395Z,3.70
2018-11-26T10:06:33.427Z,3.76
2018-11-26T10:07:33.382Z,3.77
2018-11-26T10:08:33.425Z,3.76
2018-11-26T10:09:33.381Z,3.73
2018-11-26T10:10:33.342Z,3.73
2018-11-26T10:11:33.335Z,3.68
2018-11-26T10:12:33.324Z,3.70
2018-11-26T10:13:33.308Z,3.66
2018-11-26T10:14:33.324Z,3.70
2018-11-26T10:15:33.300Z,3.68
2018-11-26T10:16:33.590Z,3.68
2018-11-26T10:17:33.280Z,3.70
2018-11-26T10:18:33.258Z,3.76
2018-11-26T10:19:33.305Z,3.81
2018-11-26T10:20:33.235Z,3.78
2018-11-26T10:21:33.227Z,3.83
2018-11-26T10:22:33.207Z,3.76
2018-11-26T10:23:33.208Z,3.76
2018-11-26T10:24:33.183Z,3.80
2018-11-26T10:25:33.196Z,3.76
2018-11-26T10:26:33.188Z,3.81
2018-11-26T10:27:33.151Z,3.87
2018-11-26T10:28:33.147Z,3.84
2018-11-26T10:29:33.132Z,3.92
2018-11-26T10:30:33.139Z,3.81
2018-11-26T10:31:33.108Z,3.86
2018-11-26T10:32:33.136Z,3.84
2018-11-26T10:33:33.089Z,3.84
2018-11-26T10:34:33.075Z,3.81
2018-11-26T10:35:33.068Z,3.98
2018-11-26T10:36:33.071Z,3.88
2018-11-26T10:37:33.122Z,3.91
2018-11-26T10:38:33.058Z,3.88
2018-11-26T10:39:33.112Z,3.81
2018-11-26T10:40:33.048Z,3.84
2018-11-26T10:41:32.999Z,3.86
2018-11-26T10:42:33.015Z,3.84
2018-11-26T10:43:32.992Z,3.86
2018-11-26T10:44:32.967Z,3.86
2018-11-26T10:45:32.964Z,3.88
2018-11-26T10:46:32.947Z,3.88
2018-11-26T10:47:32.948Z,3.87
2018-11-26T10:48:32.943Z,4.01
2018-11-26T10:49:32.919Z,4.01
2018-11-26T10:50:32.940Z,4.04
2018-11-26T10:51:32.902Z,4.01
2018-11-26T10:52:32.965Z,4.02
2018-11-26T10:53:34.317Z,4.02
2018-11-26T10:54:32.858Z,4.08
2018-11-26T10:55:32.849Z,3.87
2018-11-26T10:56:32.861Z,3.87
2018-11-26T10:57:32.825Z,3.88
2018-11-26T10:58:32.865Z,3.92
2018-11-26T10:59:32.818Z,3.98
2018-11-26T11:00:32.796Z,4.04
2018-11-26T11:01:32.785Z,3.99
2018-11-26T11:02:32.795Z,3.96
2018-11-26T11:03:32.765Z,3.99
2018-11-26T11:04:32.761Z,4.05
2018-11-26T11:05:32.756Z,3.99
2018-11-26T11:06:32.731Z,4.02
2018-11-26T11:07:32.767Z,3.96
2018-11-26T11:08:32.714Z,3.83
2018-11-26T11:09:32.716Z,3.88
2018-11-26T11:10:32.693Z,3.95
2018-11-26T11:11:32.677Z,3.91
2018-11-26T11:12:32.690Z,3.86
2018-11-26T11:13:32.660Z,3.94
2018-11-26T11:14:32.649Z,3.99
2018-11-26T11:15:32.628Z,3.88
2018-11-26T11:16:32.657Z,3.86
2018-11-26T11:17:32.632Z,3.94
2018-11-26T11:18:32.595Z,4.06
2018-11-26T11:19:32.597Z,4.05
2018-11-26T11:20:32.580Z,4.06
2018-11-26T11:21:32.564Z,4.06
2018-11-26T11:22:32.584Z,4.05
2018-11-26T11:23:32.566Z,4.10
2018-11-26T11:24:32.531Z,4.13
2018-11-26T11:25:32.578Z,3.99
2018-11-26T11:26:32.515Z,4.02
2018-11-26T11:27:32.537Z,3.98
2018-11-26T11:28:32.497Z,4.04
2018-11-26T11:29:32.481Z,4.02
2018-11-26T11:30:32.460Z,4.06
2018-11-26T11:31:32.455Z,4.04
2018-11-26T11:32:32.465Z,4.05
2018-11-26T11:33:32.432Z,3.99
2018-11-26T11:34:32.449Z,4.12
2018-11-26T11:35:32.417Z,4.13
2018-11-26T11:36:32.397Z,4.13
2018-11-26T11:37:32.438Z,4.16
2018-11-26T11:38:32.377Z,4.20
2018-11-26T11:39:32.367Z,4.01
2018-11-26T11:40:32.401Z,4.06
2018-11-26T11:41:34.454Z,4.04
2018-11-26T11:42:32.347Z,4.04
2018-11-26T11:43:32.370Z,3.94
2018-11-26T11:44:32.317Z,3.96
2018-11-26T11:45:32.314Z,3.84
2018-11-26T11:46:32.297Z,3.83
2018-11-26T11:47:32.291Z,3.83
2018-11-26T11:48:32.286Z,3.77
2018-11-26T11:49:32.268Z,3.80
2018-11-26T11:50:32.262Z,3.69
2018-11-26T11:51:32.234Z,3.74
2018-11-26T11:52:32.232Z,3.59
2018-11-26T11:53:32.251Z,3.66
2018-11-26T11:54:32.222Z,3.68
2018-11-26T11:55:32.203Z,3.69
2018-11-26T11:56:32.182Z,3.66
2018-11-26T11:57:32.188Z,3.59
2018-11-26T11:58:32.180Z,3.69
2018-11-26T11:59:32.178Z,3.69
2018-11-26T12:00:32.157Z,3.73
2018-11-26T12:01:32.131Z,3.81
2018-11-26T12:02:32.134Z,3.87
2018-11-26T12:03:32.120Z,3.84
2018-11-26T12:04:32.128Z,3.91
2018-11-26T12:05:32.082Z,3.81
2018-11-26T12:06:32.074Z,3.81
2018-11-26T12:07:32.087Z,3.70
2018-11-26T12:08:32.053Z,3.70
2018-11-26T12:09:32.037Z,3.63
2018-11-26T12:10:32.087Z,3.68
2018-11-26T12:11:32.022Z,3.68
2018-11-26T12:12:32.043Z,3.65
2018-11-26T12:13:32.013Z,3.77
2018-11-26T12:14:31.985Z,3.69
2018-11-26T12:15:32.010Z,3.78
2018-11-26T12:16:31.959Z,3.80
2018-11-26T12:17:32.001Z,3.69
2018-11-26T12:18:31.957Z,3.73
2018-11-26T12:19:31.927Z,3.78
2018-11-26T12:20:31.921Z,3.74
2018-11-26T12:21:31.919Z,3.68
2018-11-26T12:22:31.917Z,3.70
2018-11-26T12:23:31.901Z,3.74
2018-11-26T12:24:31.876Z,3.76
2018-11-26T12:25:31.871Z,3.80
2018-11-26T12:26:31.850Z,3.70
2018-11-26T12:27:31.862Z,3.77
2018-11-26T12:28:31.850Z,3.74
2018-11-26T12:29:31.819Z,3.78
2018-11-26T12:30:31.806Z,3.80
2018-11-26T12:31:31.808Z,3.81
2018-11-26T12:32:31.790Z,3.80
2018-11-26T12:33:31.807Z,3.77
2018-11-26T12:34:31.761Z,3.86
2018-11-26T12:35:31.799Z,3.87
2018-11-26T12:36:31.744Z,3.81
2018-11-26T12:37:31.740Z,3.86
2018-11-26T12:38:31.748Z,3.84
2018-11-26T12:39:31.714Z,3.87
2018-11-26T12:40:31.700Z,3.84
2018-11-26T12:41:31.687Z,3.92
2018-11-26T12:42:31.676Z,3.87
2018-11-26T12:43:31.682Z,3.87
2018-11-26T12:44:31.663Z,3.80
2018-11-26T12:45:31.646Z,3.87
2018-11-26T12:46:31.634Z,3.95
2018-11-26T12:47:31.630Z,4.05
2018-11-26T12:48:31.647Z,3.91
2018-11-26T12:49:31.600Z,3.81
2018-11-26T12:50:31.608Z,3.86
2018-11-26T12:51:31.855Z,3.81
2018-11-26T12:52:31.563Z,3.83
2018-11-26T12:53:31.561Z,3.86
2018-11-26T12:54:31.572Z,3.95
2018-11-26T12:55:31.535Z,3.88
2018-11-26T12:56:31.525Z,3.88
2018-11-26T12:57:31.518Z,3.88
2018-11-26T12:58:31.505Z,3.87
2018-11-26T12:59:31.526Z,3.87
2018-11-26T13:00:31.491Z,3.86
2018-11-26T13:01:31.473Z,3.87
2018-11-26T13:02:31.458Z,3.83
2018-11-26T13:03:31.446Z,3.86
2018-11-26T13:04:31.489Z,3.81
2018-11-26T13:05:31.425Z,3.87
2018-11-26T13:06:31.446Z,3.84
2018-11-26T13:07:31.433Z,3.86
2018-11-26T13:08:39.011Z,3.96
2018-11-26T13:09:31.414Z,4.04
2018-11-26T13:10:31.369Z,4.06
2018-11-26T13:11:31.368Z,4.02
2018-11-26T13:12:31.350Z,4.14
2018-11-26T13:13:31.336Z,4.14
2018-11-26T13:14:31.328Z,4.14
2018-11-26T13:15:31.331Z,4.22
2018-11-26T13:16:31.341Z,4.16
2018-11-26T13:17:31.307Z,4.17
2018-11-26T13:18:31.301Z,4.01
2018-11-26T13:19:31.297Z,4.02